Time;durP1;ratioP1;P1;durP2;ratioP2;P2;SDS_P1;SDS_P2;PMS_P1;PMS_P2;Temp;Humidity;BMP_temperature;BMP_pressure;BME280_temperature;BME280_humidity;BME280_pressure;Samples;Min_cycle;Max_cycle;Signal;HPM_P1;HPM_P2
2022/04/04 00:02:06;;;;;;;15.87;1.80;;;;;;;20.09;48.11;99468.00;7309591;19;158579;-39
2022/04/04 00:04:31;;;;;;;20.23;2.40;;;;;;;20.08;47.35;99472.38;7312843;19;155048;-40
2022/04/04 00:06:59;;;;;;;20.27;2.47;;;;;;;20.09;47.87;99468.84;7313222;19;129538;-39
2022/04/04 00:09:25;;;;;;;19.52;1.88;;;;;;;20.12;47.71;99479.00;7310431;19;129486;-39
2022/04/04 00:11:51;;;;;;;10.07;1.10;;;;;;;20.07;47.54;99472.53;7313853;19;130881;-38
2022/04/04 00:14:16;;;;;;;14.13;1.50;;;;;;;20.08;47.90;99472.38;7312803;19;129947;-38
2022/04/04 00:16:42;;;;;;;13.15;1.48;;;;;;;20.12;47.93;99462.50;7312721;19;130116;-40
2022/04/04 00:19:07;;;;;;;19.35;2.33;;;;;;;20.13;47.82;99464.19;7311396;19;130273;-39
2022/04/04 00:21:32;;;;;;;23.75;2.63;;;;;;;20.04;47.98;99455.38;7310532;19;129179;-38
2022/04/04 00:23:58;;;;;;;16.23;1.90;;;;;;;20.00;51.02;99468.81;7312127;19;154719;-40
2022/04/04 00:26:23;;;;;;;15.27;1.63;;;;;;;19.98;50.14;99468.13;7311221;19;154503;-39
2022/04/04 00:28:49;;;;;;;17.37;2.03;;;;;;;19.96;49.30;99462.19;7309857;19;140328;-40
2022/04/04 00:31:14;;;;;;;4.45;0.93;;;;;;;20.01;48.89;99460.84;7311452;19;129521;-40
2022/04/04 00:33:40;;;;;;;18.33;2.17;;;;;;;20.08;48.19;99461.94;7311597;19;128881;-40
2022/04/04 00:36:07;;;;;;;26.50;3.22;;;;;;;20.03;48.56;99455.50;7312049;19;129807;-39
2022/04/04 00:38:32;;;;;;;15.98;1.70;;;;;;;20.00;48.10;99447.94;7310091;19;129551;-39
2022/04/04 00:40:57;;;;;;;20.25;2.05;;;;;;;20.09;48.15;99462.78;7308005;19;158874;-38
2022/04/04 00:43:22;;;;;;;25.83;2.85;;;;;;;19.98;48.03;99445.44;7312069;19;129114;-40
2022/04/04 00:45:49;;;;;;;21.30;2.05;;;;;;;20.10;47.70;99459.22;7310274;19;147583;-39
2022/04/04 00:48:14;;;;;;;16.07;2.03;;;;;;;20.09;48.24;99457.56;7310290;19;132268;-40
2022/04/04 00:50:40;;;;;;;17.48;2.03;;;;;;;20.11;47.87;99471.31;7310176;19;158683;-38
2022/04/04 00:53:08;;;;;;;16.75;1.90;;;;;;;20.13;48.08;99461.56;7312284;19;129708;-39
2022/04/04 00:55:34;;;;;;;28.15;3.13;;;;;;;20.09;48.06;99458.41;7311001;19;129003;-38
2022/04/04 00:57:59;;;;;;;28.30;3.08;;;;;;;20.11;48.20;99460.88;7309947;19;129054;-40
2022/04/04 01:00:25;;;;;;;15.82;1.73;;;;;;;20.13;48.13;99464.19;7310916;19;129068;-40
2022/04/04 01:02:50;;;;;;;17.88;1.77;;;;;;;20.12;47.60;99463.34;7312519;19;132779;-39
2022/04/04 01:05:15;;;;;;;18.23;2.10;;;;;;;20.15;47.84;99454.44;7316496;19;153517;-39
2022/04/04 01:07:40;;;;;;;16.13;1.83;;;;;;;20.15;48.09;99457.88;7316239;19;160147;-39
2022/04/04 01:10:09;;;;;;;8.00;1.33;;;;;;;20.16;47.93;99453.50;7317547;19;147824;-38
2022/04/04 01:12:34;;;;;;;14.90;1.77;;;;;;;20.13;47.56;99445.91;7317034;19;129135;-38
2022/04/04 01:15:00;;;;;;;17.33;1.88;;;;;;;20.14;47.45;99450.16;7318404;19;129175;-39
2022/04/04 01:17:27;;;;;;;12.70;1.33;;;;;;;20.11;48.08;99448.66;7315842;19;158894;-39
2022/04/04 01:19:53;;;;;;;19.33;2.25;;;;;;;20.11;47.49;99445.22;7318972;19;130877;-40
2022/04/04 01:22:18;;;;;;;6.03;0.70;;;;;;;20.14;48.17;99429.28;7316074;19;129147;-40
2022/04/04 01:24:43;;;;;;;11.15;1.35;;;;;;;20.14;47.66;99430.13;7317957;19;128887;-40
2022/04/04 01:27:11;;;;;;;35.07;4.17;;;;;;;20.10;47.53;99438.31;7315217;19;156020;-39
2022/04/04 01:29:37;;;;;;;16.30;1.92;;;;;;;20.14;47.34;99437.13;7315134;19;131255;-39
2022/04/04 01:32:04;;;;;;;21.73;2.47;;;;;;;20.18;47.64;99435.94;7316569;19;128991;-39
2022/04/04 01:34:30;;;;;;;19.10;2.13;;;;;;;20.09;48.12;99431.47;7317995;19;129417;-40
2022/04/04 01:36:56;;;;;;;6.07;0.93;;;;;;;20.16;47.88;99428.22;7316977;19;130651;-39
2022/04/04 01:39:22;;;;;;;7.70;1.17;;;;;;;20.15;47.97;99417.91;7314833;19;130711;-39
2022/04/04 01:41:48;;;;;;;15.65;1.83;;;;;;;20.13;47.22;99427.66;7315534;19;129512;-39
2022/04/04 01:44:13;;;;;;;14.30;1.47;;;;;;;20.15;47.91;99423.13;7317387;19;129081;-40
2022/04/04 01:46:39;;;;;;;18.88;2.10;;;;;;;20.11;47.85;99411.28;7314152;19;158199;-39
2022/04/04 01:49:06;;;;;;;24.35;2.92;;;;;;;20.12;47.49;99411.16;7315466;19;130890;-39
2022/04/04 01:51:34;;;;;;;18.60;2.13;;;;;;;20.12;47.74;99412.94;7316078;19;129075;-38
2022/04/04 01:54:00;;;;;;;21.73;2.63;;;;;;;20.14;47.85;99414.47;7316948;19;128992;-39
2022/04/04 01:56:27;;;;;;;12.40;1.33;;;;;;;20.16;47.63;99412.53;7315823;19;130648;-38
2022/04/04 01:58:52;;;;;;;17.75;2.13;;;;;;;20.10;47.98;99407.00;7315467;19;129987;-38
2022/04/04 02:01:20;;;;;;;14.55;1.75;;;;;;;20.14;48.19;99404.03;7316576;19;129260;-37
2022/04/04 02:03:48;;;;;;;16.15;2.00;;;;;;;20.13;47.48;99397.13;7315253;19;128979;-38
2022/04/04 02:06:14;;;;;;;16.30;2.10;;;;;;;20.17;47.87;99397.72;7316113;19;129598;-40
2022/04/04 02:08:39;;;;;;;14.73;1.70;;;;;;;20.15;47.51;99399.63;7313241;19;129605;-40
2022/04/04 02:11:05;;;;;;;15.50;1.77;;;;;;;20.12;47.61;99395.50;7316351;19;129677;-39
2022/04/04 02:13:31;;;;;;;16.60;1.85;;;;;;;20.14;47.55;99393.56;7313305;19;131017;-38
2022/04/04 02:16:00;;;;;;;19.93;2.23;;;;;;;20.17;47.25;99392.50;7315663;19;130919;-40
2022/04/04 02:18:26;;;;;;;17.95;2.15;;;;;;;20.12;47.37;99389.44;7315607;19;130446;-38
2022/04/04 02:20:52;;;;;;;11.65;1.58;;;;;;;20.17;47.31;99392.50;7317150;19;129493;-40
2022/04/04 02:23:18;;;;;;;16.03;1.77;;;;;;;20.13;47.83;99393.72;7315178;19;154779;-40
2022/04/04 02:25:47;;;;;;;18.85;2.40;;;;;;;20.15;47.15;99394.41;7314573;19;129793;-39
2022/04/04 02:28:13;;;;;;;17.33;1.90;;;;;;;20.17;47.34;99392.50;7314765;19;129804;-39
2022/04/04 02:30:39;;;;;;;13.65;1.58;;;;;;;20.17;47.74;99392.50;7314978;19;128816;-39
2022/04/04 02:33:05;;;;;;;18.77;2.08;;;;;;;20.16;47.37;99385.66;7315482;19;129070;-37
2022/04/04 02:35:30;;;;;;;22.02;2.58;;;;;;;20.17;48.05;99384.66;7315628;19;131612;-39
2022/04/04 02:37:55;;;;;;;14.63;1.65;;;;;;;20.14;47.16;99380.53;7313566;19;158539;-38
2022/04/04 02:40:21;;;;;;;8.23;0.90;;;;;;;20.15;47.80;99378.75;7314921;19;154644;-39
2022/04/04 02:42:47;;;;;;;15.45;1.63;;;;;;;20.12;47.33;99387.66;7313337;19;129990;-39
2022/04/04 02:45:13;;;;;;;4.35;0.90;;;;;;;20.11;47.28;99383.41;7315538;19;130704;-36
2022/04/04 02:47:38;;;;;;;20.13;2.53;;;;;;;20.15;47.50;99383.97;7313786;19;129239;-39
2022/04/04 02:50:05;;;;;;;16.67;1.98;;;;;;;20.15;47.41;99379.59;7316480;19;129157;-39
2022/04/04 02:52:30;;;;;;;10.77;1.40;;;;;;;20.16;47.65;99377.81;7315648;19;129713;-38
2022/04/04 02:54:55;;;;;;;19.65;2.45;;;;;;;20.16;47.31;99367.38;7315967;19;129948;-37
2022/04/04 02:57:21;;;;;;;18.48;1.92;;;;;;;20.08;47.33;99356.75;7312405;19;160057;-40
2022/04/04 02:59:46;;;;;;;11.48;1.23;;;;;;;20.15;47.31;99373.53;7315596;19;129004;-39
2022/04/04 03:02:12;;;;;;;20.73;2.35;;;;;;;20.07;47.11;99355.94;7312926;19;128866;-39
2022/04/04 03:04:40;;;;;;;19.23;2.23;;;;;;;20.16;47.55;99362.16;7315339;19;129338;-39
2022/04/04 03:07:07;;;;;;;24.70;2.90;;;;;;;20.17;47.78;99363.78;7314025;19;130897;-40
2022/04/04 03:09:32;;;;;;;26.10;3.22;;;;;;;20.20;47.79;99360.91;7312242;19;129622;-38
2022/04/04 03:11:57;;;;;;;19.30;2.22;;;;;;;20.15;47.12;99366.53;7313324;19;155010;-40
2022/04/04 03:14:23;;;;;;;13.90;1.65;;;;;;;20.21;47.50;99367.78;7315688;19;130929;-39
2022/04/04 03:16:48;;;;;;;11.55;1.25;;;;;;;20.14;47.33;99362.25;7314131;19;129668;-37
2022/04/04 03:19:13;;;;;;;13.37;1.43;;;;;;;20.20;47.30;99359.13;7312503;19;139054;-40
2022/04/04 03:21:40;;;;;;;17.23;1.87;;;;;;;20.18;47.50;99350.59;7312125;19;141636;-39
2022/04/04 03:24:06;;;;;;;26.55;2.70;;;;;;;20.16;47.00;99357.75;7313825;19;130160;-40
2022/04/04 03:26:32;;;;;;;8.40;1.13;;;;;;;20.21;47.55;99362.56;7315040;19;130258;-39
2022/04/04 03:28:57;;;;;;;26.77;2.90;;;;;;;20.19;47.10;99354.03;7311660;19;129423;-39
2022/04/04 03:31:22;;;;;;;13.60;1.60;;;;;;;20.18;47.09;99353.22;7313426;19;129274;-38
2022/04/04 03:33:48;;;;;;;21.00;2.28;;;;;;;20.14;47.17;99353.59;7314046;19;129438;-40
2022/04/04 03:36:13;;;;;;;15.10;1.73;;;;;;;20.17;47.72;99355.97;7311239;19;159139;-40
2022/04/04 03:38:38;;;;;;;16.27;1.98;;;;;;;20.15;47.31;99350.03;7312032;19;129322;-40
2022/04/04 03:41:04;;;;;;;12.52;1.58;;;;;;;20.14;47.39;99351.81;7310639;19;151880;-39
2022/04/04 03:43:29;;;;;;;19.80;2.10;;;;;;;20.17;47.56;99353.34;7313132;19;129117;-39
2022/04/04 03:45:54;;;;;;;27.95;2.97;;;;;;;20.13;47.69;99352.75;7310711;19;158700;-39
2022/04/04 03:48:20;;;;;;;14.70;1.77;;;;;;;20.11;47.76;99341.66;7310687;19;154859;-40
2022/04/04 03:50:45;;;;;;;18.83;2.13;;;;;;;20.12;47.35;99342.47;7309711;19;154676;-39
2022/04/04 03:53:11;;;;;;;19.50;2.28;;;;;;;20.15;47.71;99345.66;7314245;19;130089;-40
2022/04/04 03:55:38;;;;;;;15.23;1.83;;;;;;;20.16;47.20;99334.25;7312442;19;131002;-40
2022/04/04 03:58:04;;;;;;;20.40;2.25;;;;;;;20.19;47.78;99341.00;7312650;19;128830;-39
2022/04/04 04:00:29;;;;;;;22.73;2.92;;;;;;;20.16;47.22;99330.84;7312125;19;129091;-38
2022/04/04 04:02:55;;;;;;;16.85;1.85;;;;;;;20.14;47.69;99332.72;7310972;19;130489;-40
2022/04/04 04:05:21;;;;;;;26.65;3.22;;;;;;;20.17;47.79;99329.84;7312479;19;131687;-40
2022/04/04 04:07:47;;;;;;;13.80;1.45;;;;;;;20.12;47.34;99326.81;7309065;19;154777;-39
2022/04/04 04:10:12;;;;;;;11.00;1.75;;;;;;;20.17;47.74;99324.63;7312087;19;129501;-39
2022/04/04 04:12:39;;;;;;;22.40;2.60;;;;;;;20.16;47.74;99315.19;7310058;19;129576;-38
2022/04/04 04:15:06;;;;;;;32.03;3.63;;;;;;;20.16;47.51;99315.19;7311776;19;130680;-40
2022/04/04 04:17:32;;;;;;;;;;;;;;;20.08;47.85;99310.59;7311463;19;129152;-37
2022/04/04 04:22:41;;;;;;;20.98;2.38;;;;;;;20.12;47.09;99311.16;7307695;19;129358;-39
2022/04/04 04:25:07;;;;;;;22.10;2.72;;;;;;;20.14;47.50;99307.44;7311465;19;135585;-38
2022/04/04 04:27:33;;;;;;;22.23;2.43;;;;;;;20.21;47.01;99316.38;7309749;19;129805;-38
2022/04/04 04:29:58;;;;;;;21.90;2.47;;;;;;;20.16;46.92;99312.56;7312580;19;129466;-40
2022/04/04 04:32:24;;;;;;;32.03;3.90;;;;;;;20.16;47.17;99312.56;7309759;19;130044;-39
2022/04/04 04:34:50;;;;;;;19.43;2.17;;;;;;;20.26;47.26;99308.16;7312002;19;130505;-39
2022/04/04 04:37:21;;;;;;;23.02;2.65;;;;;;;20.21;47.71;99310.38;7307980;19;129952;-39
2022/04/04 04:39:46;;;;;;;13.55;1.35;;;;;;;20.19;47.09;99310.50;7312772;19;129248;-39
2022/04/04 04:42:12;;;;;;;12.10;2.10;;;;;;;20.15;47.41;99306.50;7305544;19;129216;-40
2022/04/04 04:44:37;;;;;;;16.43;2.07;;;;;;;20.16;46.98;99296.91;7309080;19;158291;-39
2022/04/04 04:47:03;;;;;;;33.42;3.30;;;;;;;20.21;47.09;99305.94;7307487;19;130147;-36
2022/04/04 04:49:29;;;;;;;18.80;1.97;;;;;;;20.08;47.64;99292.31;7308856;19;129512;-40
2022/04/04 04:51:55;;;;;;;9.05;1.35;;;;;;;20.17;47.08;99304.59;7311711;19;129166;-42
2022/04/04 04:54:20;;;;;;;10.98;1.15;;;;;;;20.15;47.13;99301.28;7311743;19;129272;-41
2022/04/04 04:56:46;;;;;;;19.20;2.23;;;;;;;20.07;47.41;99292.47;7309647;19;141099;-39
2022/04/04 04:59:13;;;;;;;31.30;3.40;;;;;;;20.17;47.61;99302.00;7306746;19;129464;-41
2022/04/04 05:01:39;;;;;;;15.37;1.97;;;;;;;20.18;47.47;99300.22;7311467;19;129252;-41
2022/04/04 05:04:04;;;;;;;19.38;2.20;;;;;;;20.18;47.02;99295.00;7312221;19;129702;-39
2022/04/04 05:06:30;;;;;;;15.45;1.83;;;;;;;20.20;46.87;99298.25;7310336;19;129822;-40
2022/04/04 05:08:57;;;;;;;31.10;3.22;;;;;;;20.15;47.16;99290.03;7310570;19;129183;-37
2022/04/04 05:11:23;;;;;;;22.85;2.50;;;;;;;20.15;47.12;99292.63;7310093;19;130197;-38
2022/04/04 05:13:48;;;;;;;14.40;1.50;;;;;;;20.14;47.43;99293.56;7311410;19;158508;-40
2022/04/04 05:16:14;;;;;;;25.50;3.07;;;;;;;20.17;47.37;99291.53;7306756;19;153245;-41
2022/04/04 05:18:43;;;;;;;13.00;1.27;;;;;;;20.18;47.27;99289.78;7311295;19;129188;-39
2022/04/04 05:21:09;;;;;;;20.02;2.13;;;;;;;20.14;47.02;99285.75;7311256;19;129265;-38
2022/04/04 05:23:38;;;;;;;14.02;1.50;;;;;;;20.16;47.65;99281.25;7308107;19;131127;-39
2022/04/04 05:26:04;;;;;;;21.55;2.45;;;;;;;20.17;47.45;99282.88;7311401;19;128997;-41
2022/04/04 05:28:29;;;;;;;18.63;1.73;;;;;;;20.14;47.24;99288.34;7306780;19;129323;-39
2022/04/04 05:30:54;;;;;;;28.95;2.67;;;;;;;20.19;47.42;99283.56;7310003;19;129523;-39
2022/04/04 05:33:20;;;;;;;18.15;1.88;;;;;;;20.21;47.31;99284.28;7310034;19;158393;-41
2022/04/04 05:35:46;;;;;;;19.40;2.27;;;;;;;20.15;47.16;99283.03;7306557;19;136025;-41
2022/04/04 05:38:13;;;;;;;12.97;1.43;;;;;;;20.15;47.05;99280.41;7310372;19;129239;-40
2022/04/04 05:40:38;;;;;;;;;;;;;;;20.13;47.04;99273.66;7312241;19;130945;-41
2022/04/04 05:43:03;;;;;;;14.30;1.80;;;;;;;20.17;47.46;99273.28;7307969;19;156074;-39
2022/04/04 05:45:30;;;;;;;23.75;3.08;;;;;;;20.15;47.64;99274.34;7308431;19;130330;-38
2022/04/04 05:47:55;;;;;;;20.30;2.25;;;;;;;20.12;47.52;99277.22;7309055;19;129862;-40
2022/04/04 05:50:20;;;;;;;15.07;1.73;;;;;;;20.15;47.08;99280.41;7315212;19;129691;-40
2022/04/04 05:52:46;;;;;;;8.82;1.15;;;;;;;20.19;47.57;99273.13;7317421;19;129258;-40
2022/04/04 05:55:12;;;;;;;15.43;1.55;;;;;;;20.16;47.20;99276.03;7318930;19;129180;-39
2022/04/04 05:57:40;;;;;;;17.35;1.55;;;;;;;20.14;47.21;99283.13;7317676;19;130334;-38
2022/04/04 06:00:10;;;;;;;27.77;3.15;;;;;;;20.17;47.70;99278.50;7316540;19;129113;-39
2022/04/04 06:02:37;;;;;;;17.65;1.85;;;;;;;20.19;47.29;99276.56;7312767;19;129406;-41
2022/04/04 06:05:04;;;;;;;8.80;1.10;;;;;;;20.18;47.58;99274.09;7315103;19;130560;-40
2022/04/04 06:07:30;;;;;;;24.10;2.65;;;;;;;20.14;47.51;99275.31;7315662;19;128996;-38
2022/04/04 06:09:55;;;;;;;22.70;2.13;;;;;;;20.24;48.02;99268.31;7312712;19;157317;-40
2022/04/04 06:12:20;;;;;;;17.83;2.00;;;;;;;20.22;46.94;99265.03;7314602;19;159104;-39
2022/04/04 06:14:45;;;;;;;24.90;2.30;;;;;;;20.21;46.23;99268.59;7302960;19;145591;-37
2022/04/04 06:17:11;;;;;;;23.88;2.22;;;;;;;20.15;46.50;99269.13;7311020;19;153892;-41
2022/04/04 06:19:36;;;;;;;48.83;4.45;;;;;;;20.10;46.92;99261.69;7307064;19;158476;-38
2022/04/04 06:22:03;;;;;;;22.25;2.40;;;;;;;20.13;46.76;99268.44;7309662;19;130417;-37
2022/04/04 06:24:30;;;;;;;9.07;1.15;;;;;;;20.13;47.06;99258.00;7317539;19;129005;-40
2022/04/04 06:26:56;;;;;;;21.05;2.53;;;;;;;20.13;46.71;99256.19;7314882;19;129729;-39
2022/04/04 06:29:21;;;;;;;42.47;3.95;;;;;;;20.10;46.65;99261.69;7314647;19;129115;-41
2022/04/04 06:31:46;;;;;;;13.90;1.43;;;;;;;20.13;47.24;99256.19;7316155;19;158724;-39
2022/04/04 06:34:12;;;;;;;109.50;13.10;;;;;;;20.15;47.24;99258.69;7307258;19;151199;-38
2022/04/04 06:36:40;;;;;;;17.90;1.92;;;;;;;20.15;47.29;99254.31;7302898;19;154442;-40
2022/04/04 06:39:06;;;;;;;13.95;1.63;;;;;;;20.12;47.29;99246.72;7315281;19;129430;-40
2022/04/04 06:41:31;;;;;;;12.63;1.35;;;;;;;20.15;46.56;99243.88;7314725;19;129390;-39
2022/04/04 06:43:57;;;;;;;15.23;1.55;;;;;;;20.15;47.29;99249.09;7317518;19;129112;-39
2022/04/04 06:46:22;;;;;;;14.52;1.65;;;;;;;20.11;47.47;99231.22;7307668;19;130670;-38
2022/04/04 06:48:50;;;;;;;14.48;1.55;;;;;;;20.11;46.70;99241.66;7312699;19;158115;-40
2022/04/04 06:51:16;;;;;;;77.25;8.90;;;;;;;20.14;47.44;99238.75;7307166;19;130580;-39
2022/04/04 06:53:41;;;;;;;14.10;1.50;;;;;;;20.03;47.43;99216.25;7316782;19;128879;-39
2022/04/04 06:56:06;;;;;;;17.58;1.73;;;;;;;20.09;46.80;99230.53;7315412;19;154089;-39
2022/04/04 06:58:33;;;;;;;4.45;0.77;;;;;;;20.11;47.06;99223.38;7308933;19;159211;-38
2022/04/04 07:00:59;;;;;;;17.05;1.90;;;;;;;20.01;47.11;99217.34;7314533;19;130925;-39
2022/04/04 07:03:24;;;;;;;18.73;1.95;;;;;;;20.13;47.43;99224.88;7309096;19;130347;-40
2022/04/04 07:05:49;;;;;;;22.50;2.72;;;;;;;20.08;47.20;99221.06;7310901;19;154128;-38
2022/04/04 07:08:14;;;;;;;27.23;2.95;;;;;;;20.10;47.16;99217.34;7310278;19;149884;-41
2022/04/04 07:10:40;;;;;;;12.25;1.33;;;;;;;20.10;47.52;99211.28;7312233;19;158562;-39
2022/04/04 07:13:05;;;;;;;20.23;2.15;;;;;;;20.05;47.59;99210.88;7312523;19;154418;-40
2022/04/04 07:15:31;;;;;;;20.65;2.63;;;;;;;20.09;47.42;99217.47;7314485;19;129258;-40
2022/04/04 07:17:57;;;;;;;19.07;2.17;;;;;;;20.09;47.31;99217.47;7314584;19;129066;-37
2022/04/04 07:20:22;;;;;;;17.98;2.35;;;;;;;20.10;47.40;99206.06;7303069;19;130835;-40
2022/04/04 07:22:48;;;;;;;20.83;2.35;;;;;;;20.11;47.60;99210.34;7314299;19;131636;-39
2022/04/04 07:25:14;;;;;;;14.33;1.90;;;;;;;20.01;47.61;99193.88;7308248;19;129928;-39
2022/04/04 07:27:40;;;;;;;11.63;1.23;;;;;;;20.08;46.86;99205.41;7311191;19;131416;-41
2022/04/04 07:30:07;;;;;;;18.10;2.03;;;;;;;20.09;47.45;99199.22;7313271;19;131410;-38
2022/04/04 07:32:39;;;;;;;23.45;2.55;;;;;;;20.10;47.04;99198.25;7315570;19;129236;-38
2022/04/04 07:35:06;;;;;;;72.32;8.15;;;;;;;20.08;47.14;99201.00;7308195;19;130715;-38
2022/04/04 07:37:31;;;;;;;16.73;1.65;;;;;;;20.02;47.48;99169.41;7310465;19;130928;-38
2022/04/04 07:39:58;;;;;;;53.55;6.22;;;;;;;20.12;47.49;99178.06;7312846;19;129708;-38
2022/04/04 07:42:23;;;;;;;16.67;1.93;;;;;;;20.11;46.84;99171.19;7308461;19;129324;-38
2022/04/04 07:44:48;;;;;;;21.13;2.08;;;;;;;20.11;46.84;99176.41;7312524;19;129483;-40
2022/04/04 07:47:13;;;;;;;15.43;1.98;;;;;;;20.12;47.29;99178.06;7308115;19;133227;-37
2022/04/04 07:49:39;;;;;;;21.37;2.37;;;;;;;20.08;47.55;99163.66;7309615;19;158098;-40
2022/04/04 07:52:04;;;;;;;14.97;1.67;;;;;;;20.09;46.80;99168.72;7307336;19;155262;-38
2022/04/04 07:54:30;;;;;;;13.18;1.42;;;;;;;20.10;47.13;99162.53;7311736;19;129064;-39
2022/04/04 07:56:56;;;;;;;20.88;2.13;;;;;;;20.15;47.37;99159.53;7310772;19;130576;-39
2022/04/04 07:59:24;;;;;;;14.02;1.42;;;;;;;20.08;46.85;99146.19;7312120;19;129446;-38
2022/04/04 08:01:49;;;;;;;15.82;2.05;;;;;;;20.10;47.20;99146.88;7308406;19;130102;-38
2022/04/04 08:04:15;;;;;;;25.85;3.05;;;;;;;20.12;47.25;99144.13;7309866;19;154012;-40
2022/04/04 08:06:40;;;;;;;9.02;1.25;;;;;;;20.00;47.48;99129.63;7308166;19;158455;-39
2022/04/04 08:09:05;;;;;;;21.73;2.20;;;;;;;20.09;46.87;99142.63;7309013;19;158750;-37
2022/04/04 08:11:30;;;;;;;14.63;1.77;;;;;;;20.05;46.80;99125.59;7308406;19;155393;-39
2022/04/04 08:13:56;;;;;;;18.83;1.93;;;;;;;20.08;47.22;99138.34;7310661;19;154011;-39
2022/04/04 08:16:25;;;;;;;83.75;9.15;;;;;;;20.10;47.28;99136.44;7308478;19;130741;-35
2022/04/04 08:18:50;;;;;;;27.90;3.17;;;;;;;20.11;46.86;99126.84;7308542;19;131062;-39
2022/04/04 08:21:16;;;;;;;44.78;5.15;;;;;;;20.10;47.15;99126.00;7309017;19;141528;-39
2022/04/04 08:23:42;;;;;;;17.97;1.87;;;;;;;20.09;47.40;99128.75;7308040;19;129493;-38
2022/04/04 08:26:07;;;;;;;21.25;2.40;;;;;;;20.08;47.18;99121.91;7311414;19;130348;-41
2022/04/04 08:28:33;;;;;;;12.68;1.30;;;;;;;20.06;46.98;99118.59;7310940;19;158712;-39
2022/04/04 08:30:58;;;;;;;21.85;2.35;;;;;;;20.05;47.11;99132.59;7311027;19;129048;-38
2022/04/04 08:33:24;;;;;;;25.63;2.90;;;;;;;20.07;46.94;99118.47;7312449;19;129627;-40
2022/04/04 08:35:52;;;;;;;16.23;1.83;;;;;;;20.03;47.34;99122.31;7313530;19;130093;-40
2022/04/04 08:38:18;;;;;;;21.98;2.15;;;;;;;20.05;47.40;99111.72;7307489;19;129529;-40
2022/04/04 08:40:45;;;;;;;7.35;0.88;;;;;;;20.09;47.09;99106.09;7312540;19;129253;-40
2022/04/04 08:43:11;;;;;;;16.60;1.70;;;;;;;20.05;47.46;99109.13;7311970;19;129201;-37
2022/04/04 08:45:42;;;;;;;20.00;2.20;;;;;;;19.98;47.02;99082.75;7310182;19;130045;-39
2022/04/04 08:48:11;;;;;;;28.80;3.10;;;;;;;20.11;46.93;99103.34;7306369;19;130258;-39
2022/04/04 08:50:39;;;;;;;17.20;1.88;;;;;;;20.04;47.26;99097.88;7308562;19;129010;-37
2022/04/04 08:53:05;;;;;;;20.60;1.95;;;;;;;20.03;47.40;99092.81;7310410;19;129405;-40
2022/04/04 08:55:31;;;;;;;27.77;3.23;;;;;;;20.04;47.07;99086.59;7309843;19;129577;-41
2022/04/04 08:57:56;;;;;;;12.40;1.35;;;;;;;20.06;47.38;99067.25;7311011;19;129657;-39
2022/04/04 09:00:22;;;;;;;28.65;3.13;;;;;;;20.06;47.22;99082.06;7310528;19;129012;-39
2022/04/04 09:03:04;;;;;;;12.60;1.55;;;;;;;20.02;46.68;99071.09;7310899;19;129067;-38
2022/04/04 09:05:34;;;;;;;24.13;3.30;;;;;;;20.09;46.16;99071.34;7311709;19;129627;-38
2022/04/04 09:08:05;;;;;;;12.93;1.67;;;;;;;20.03;46.15;99056.28;7312499;19;129873;-37
2022/04/04 09:10:35;;;;;;;14.82;1.90;;;;;;;19.94;46.48;99036.25;7313594;19;129112;-37
2022/04/04 09:13:12;;;;;;;11.80;1.52;;;;;;;20.03;46.63;99045.84;7311147;19;129019;-40
2022/04/04 09:15:57;;;;;;;18.10;2.17;;;;;;;20.08;46.22;99059.28;7311379;19;132913;-38
2022/04/04 09:18:39;;;;;;;19.77;2.25;;;;;;;20.04;46.96;99042.25;7308668;19;132521;-41
2022/04/04 09:21:26;;;;;;;13.32;1.38;;;;;;;20.03;46.39;99043.22;7311463;19;128917;-38
2022/04/04 09:23:56;;;;;;;21.45;2.53;;;;;;;20.05;47.07;99041.28;7311854;19;129058;-40
2022/04/04 09:26:35;;;;;;;19.05;2.25;;;;;;;20.03;46.74;99030.19;7317593;19;130747;-37
2022/04/04 09:29:01;;;;;;;25.73;2.60;;;;;;;20.09;46.96;99035.66;7316036;19;129447;-40
2022/04/04 09:31:27;;;;;;;12.27;1.25;;;;;;;20.01;47.33;99045.97;7318315;19;129814;-38
2022/04/04 09:33:52;;;;;;;10.75;1.80;;;;;;;20.01;47.03;99016.44;7317632;19;129027;-38
2022/04/04 09:36:18;;;;;;;30.13;3.70;;;;;;;20.03;47.32;99004.09;7314500;19;130308;-38
2022/04/04 09:38:52;;;;;;;15.70;1.58;;;;;;;20.02;47.28;98986.78;7317207;19;129196;-41
2022/04/04 09:41:18;;;;;;;12.82;1.60;;;;;;;19.98;46.70;98980.22;7317873;19;129063;-38
2022/04/04 09:44:13;;;;;;;19.45;3.13;;;;;;;20.13;46.48;98973.56;7315866;19;129695;-40
2022/04/04 09:46:44;;;;;;;20.70;3.28;;;;;;;20.23;46.67;98990.03;7315097;19;129350;-39
2022/04/04 09:49:18;;;;;;;33.55;5.88;;;;;;;20.18;45.84;98976.59;7314312;19;130612;-40
2022/04/04 09:51:48;;;;;;;8.10;3.42;;;;;;;20.23;46.01;98974.34;7315863;19;129086;-40
2022/04/04 09:54:28;;;;;;;19.23;4.28;;;;;;;20.11;46.18;98959.81;7318343;19;129485;-39
2022/04/04 09:57:16;;;;;;;9.82;3.40;;;;;;;20.12;46.16;98961.44;7315917;19;129156;-40
2022/04/04 09:59:43;;;;;;;20.75;4.07;;;;;;;20.11;46.27;98958.03;7315861;19;130425;-39
2022/04/04 10:02:12;;;;;;;18.08;4.05;;;;;;;20.10;46.57;98959.00;7316173;19;129045;-41
2022/04/04 10:04:38;;;;;;;15.88;4.00;;;;;;;20.10;46.56;98943.34;7319357;19;129521;-40
2022/04/04 10:07:08;;;;;;;21.42;4.38;;;;;;;20.10;47.16;98947.72;7315211;19;129636;-38
2022/04/04 10:09:35;;;;;;;21.77;4.40;;;;;;;20.13;46.48;98942.25;7316792;19;129148;-39
2022/04/04 10:12:00;;;;;;;;;;;;;;;20.09;46.46;98918.22;7317691;19;128930;-40
2022/04/04 10:14:26;;;;;;;14.32;3.25;;;;;;;20.09;46.77;98927.81;7318261;19;128846;-40
2022/04/04 10:16:53;;;;;;;16.17;3.65;;;;;;;20.09;47.29;98925.22;7314699;19;129333;-39
2022/04/04 10:19:20;;;;;;;19.02;3.75;;;;;;;20.05;46.75;98923.84;7316026;19;129273;-41
2022/04/04 10:21:46;;;;;;;24.80;4.22;;;;;;;20.07;47.27;98921.94;7315265;19;129090;-37
2022/04/04 10:24:13;;;;;;;18.00;3.23;;;;;;;20.06;46.64;98909.84;7315713;19;128773;-39
2022/04/04 10:26:39;;;;;;;33.97;5.55;;;;;;;20.02;47.17;98890.22;7314245;19;130544;-38
2022/04/04 10:29:14;;;;;;;14.10;3.28;;;;;;;20.04;47.17;98917.00;7314195;19;129797;-39
2022/04/04 10:31:47;;;;;;;36.45;5.22;;;;;;;20.05;46.92;98909.03;7315625;19;129268;-39
2022/04/04 10:34:16;;;;;;;17.85;3.60;;;;;;;19.99;46.84;98887.91;7315825;19;129005;-40
2022/04/04 10:37:07;;;;;;;19.95;3.78;;;;;;;20.05;46.92;98893.38;7314378;19;131081;-40
2022/04/04 10:39:47;;;;;;;19.30;3.28;;;;;;;20.05;47.04;98889.94;7313797;19;129216;-37
2022/04/04 10:42:24;;;;;;;18.30;3.75;;;;;;;20.07;46.71;98891.44;7316507;19;128841;-37
2022/04/04 10:44:55;;;;;;;;;;;;;;;20.04;47.26;98881.31;7315614;19;128926;-40
2022/04/04 10:47:22;;;;;;;17.60;3.13;;;;;;;20.08;46.51;98876.63;7315368;19;132323;-37
2022/04/04 10:49:48;;;;;;;20.63;3.35;;;;;;;20.07;47.37;98874.97;7316384;19;130489;-36
2022/04/04 10:52:13;;;;;;;17.38;3.00;;;;;;;20.08;46.96;98866.19;7317149;19;129080;-36
2022/04/04 10:54:38;;;;;;;13.70;3.10;;;;;;;20.10;46.78;98869.44;7315598;19;153144;-37
2022/04/04 10:57:18;;;;;;;18.17;3.35;;;;;;;20.10;47.21;98853.78;7315064;19;145100;-37
2022/04/04 10:59:48;;;;;;;15.85;3.08;;;;;;;20.08;47.19;98847.91;7312676;19;129606;-37
2022/04/04 11:02:18;;;;;;;24.88;3.67;;;;;;;19.98;46.61;98837.53;7316150;19;129066;-37
2022/04/04 11:07:38;;;;;;;20.77;3.33;;;;;;;19.95;47.09;98803.91;7315599;19;128835;-37
2022/04/04 11:10:06;;;;;;;10.05;2.15;;;;;;;20.08;46.90;98816.59;7312921;19;131019;-37
2022/04/04 11:12:54;;;;;;;17.70;3.08;;;;;;;20.05;46.69;98809.06;7314904;19;129801;-37
2022/04/04 11:15:41;;;;;;;25.90;4.20;;;;;;;20.04;47.23;98804.81;7313133;19;129179;-37
2022/04/04 11:18:06;;;;;;;14.60;2.38;;;;;;;20.08;46.87;98798.34;7314891;19;130268;-37
2022/04/04 11:20:31;;;;;;;19.70;3.25;;;;;;;20.08;46.54;98793.13;7312957;19;159441;-37
2022/04/04 11:22:59;;;;;;;12.73;2.00;;;;;;;20.04;47.60;98786.53;7314627;19;154453;-37
2022/04/04 11:25:33;;;;;;;26.20;3.85;;;;;;;20.07;47.24;98788.84;7314127;19;128807;-37